createdAt,value
2022-08-20T00:00:55.163Z,1.42
2022-08-20T00:03:33.996Z,1.40
2022-08-20T00:06:04.625Z,1.45
2022-08-20T00:08:33.140Z,0.90
2022-08-20T00:11:02.308Z,2.55
2022-08-20T00:13:33.521Z,1.60
2022-08-20T00:16:02.452Z,2.00
2022-08-20T00:18:31.739Z,2.92
2022-08-20T00:21:01.095Z,1.58
2022-08-20T00:23:29.011Z,3.33
2022-08-20T00:25:57.095Z,1.88
2022-08-20T00:28:24.895Z,1.70
2022-08-20T00:30:52.713Z,1.17
2022-08-20T00:33:23.628Z,3.40
2022-08-20T00:35:56.658Z,1.55
2022-08-20T00:38:25.866Z,1.65
2022-08-20T00:40:56.451Z,2.15
2022-08-20T00:43:36.747Z,2.97
2022-08-20T00:46:07.967Z,1.73
2022-08-20T00:48:39.378Z,2.55
2022-08-20T00:51:12.153Z,2.42
2022-08-20T00:53:40.752Z,1.52
2022-08-20T00:56:10.437Z,2.78
2022-08-20T00:58:41.161Z,2.42
2022-08-20T01:01:10.508Z,2.30
2022-08-20T01:03:38.635Z,1.60
2022-08-20T01:06:09.235Z,1.95
2022-08-20T01:08:37.256Z,1.58
2022-08-20T01:11:12.616Z,2.15
2022-08-20T01:13:41.772Z,2.78
2022-08-20T01:16:19.653Z,1.95
2022-08-20T01:18:48.921Z,1.77
2022-08-20T01:21:24.013Z,2.17
2022-08-20T01:23:57.221Z,2.00
2022-08-20T01:26:31.455Z,4.37
2022-08-20T01:29:03.452Z,3.65
2022-08-20T01:31:34.037Z,1.75
2022-08-20T01:34:03.910Z,3.58
2022-08-20T01:36:36.959Z,2.00
2022-08-20T01:39:07.163Z,2.80
2022-08-20T01:41:52.836Z,1.52
2022-08-20T01:44:21.861Z,2.58
2022-08-20T01:46:55.169Z,2.22
2022-08-20T01:49:29.335Z,2.85
2022-08-20T01:52:01.004Z,3.17
2022-08-20T01:54:29.296Z,2.45
2022-08-20T01:57:03.247Z,3.22
2022-08-20T01:59:31.641Z,2.80
2022-08-20T02:02:02.550Z,2.28
2022-08-20T02:04:31.218Z,2.42
2022-08-20T02:07:02.873Z,3.10
2022-08-20T02:09:33.176Z,2.55
2022-08-20T02:12:04.044Z,2.10
2022-08-20T02:14:32.506Z,3.53
2022-08-20T02:17:00.610Z,2.38
2022-08-20T02:19:33.792Z,3.33
2022-08-20T02:22:08.094Z,2.30
2022-08-20T02:24:36.020Z,2.05
2022-08-20T02:27:05.243Z,2.65
2022-08-20T02:29:33.174Z,2.50
2022-08-20T02:32:24.163Z,3.58
2022-08-20T02:34:49.598Z,2.10
2022-08-20T02:37:18.290Z,2.53
2022-08-20T02:39:46.125Z,2.08
2022-08-20T02:42:15.368Z,1.95
2022-08-20T02:44:45.524Z,2.00
2022-08-20T02:47:13.382Z,2.45
2022-08-20T02:49:41.153Z,2.20
2022-08-20T02:52:09.558Z,2.50
2022-08-20T02:54:37.313Z,4.32
2022-08-20T02:57:05.409Z,2.40
2022-08-20T02:59:34.641Z,2.10
2022-08-20T03:02:02.646Z,2.20
2022-08-20T03:04:30.502Z,4.00
2022-08-20T03:06:59.163Z,2.60
2022-08-20T03:09:27.403Z,2.90
2022-08-20T03:11:55.151Z,2.33
2022-08-20T03:14:22.965Z,4.50
2022-08-20T03:16:52.588Z,2.25
2022-08-20T03:19:20.593Z,3.42
2022-08-20T03:21:48.327Z,2.25
2022-08-20T03:24:16.469Z,3.28
2022-08-20T03:26:44.413Z,4.25
2022-08-20T03:29:12.616Z,2.75
2022-08-20T03:31:40.421Z,2.80
2022-08-20T03:34:09.539Z,4.07
2022-08-20T03:36:37.384Z,3.15
2022-08-20T03:39:11.531Z,3.17
2022-08-20T03:44:07.820Z,3.10
2022-08-20T03:46:36.023Z,3.33
2022-08-20T03:49:04.105Z,2.90
2022-08-20T03:51:56.385Z,3.67
2022-08-20T03:54:21.768Z,3.05
2022-08-20T03:56:49.697Z,4.57
2022-08-20T03:59:17.503Z,3.80
2022-08-20T04:01:47.018Z,3.70
2022-08-20T04:04:15.441Z,4.18
2022-08-20T04:06:47.454Z,2.63
2022-08-20T04:09:15.536Z,3.17
2022-08-20T04:11:44.247Z,4.47
2022-08-20T04:14:18.565Z,4.15
2022-08-20T04:16:48.885Z,3.72
2022-08-20T04:19:17.152Z,4.45
2022-08-20T04:21:48.878Z,5.22
2022-08-20T04:24:27.556Z,4.32
2022-08-20T04:27:02.512Z,3.17
2022-08-20T04:29:32.395Z,3.05
2022-08-20T04:32:05.607Z,4.57
2022-08-20T04:34:35.232Z,3.03
2022-08-20T04:37:05.268Z,3.92
2022-08-20T04:39:33.747Z,3.38
2022-08-20T04:42:00.575Z,4.22
2022-08-20T04:44:28.810Z,3.85
2022-08-20T04:46:56.773Z,4.03
2022-08-20T04:49:26.271Z,4.07
2022-08-20T04:51:54.729Z,3.67
2022-08-20T04:54:23.927Z,3.08
2022-08-20T04:56:52.097Z,3.65
2022-08-20T04:59:19.873Z,4.15
2022-08-20T05:01:48.080Z,4.65
2022-08-20T05:04:15.855Z,3.88
2022-08-20T05:06:44.431Z,4.40
2022-08-20T05:09:12.279Z,6.40
2022-08-20T05:11:41.458Z,4.50
2022-08-20T05:14:10.100Z,4.28
2022-08-20T05:16:40.264Z,5.75
2022-08-20T05:19:10.623Z,4.10
2022-08-20T05:21:38.488Z,6.18
2022-08-20T05:24:07.128Z,5.57
2022-08-20T05:26:35.194Z,6.45
2022-08-20T05:29:06.217Z,3.38
2022-08-20T05:31:35.261Z,4.85
2022-08-20T05:34:04.273Z,3.60
2022-08-20T05:36:32.123Z,5.70
2022-08-20T05:39:00.276Z,4.50
2022-08-20T05:41:30.500Z,4.78
2022-08-20T05:44:01.860Z,4.95
2022-08-20T05:46:32.205Z,4.85
2022-08-20T05:49:01.357Z,5.20
2022-08-20T05:51:29.876Z,6.10
2022-08-20T05:53:59.487Z,4.07
2022-08-20T05:56:31.247Z,3.88
2022-08-20T05:59:02.484Z,4.32
2022-08-20T06:01:32.462Z,5.28
2022-08-20T06:04:18.329Z,3.85
2022-08-20T06:06:47.262Z,3.85
2022-08-20T06:09:28.013Z,4.78
2022-08-20T06:12:00.943Z,7.88
2022-08-20T06:14:28.792Z,4.13
2022-08-20T06:17:04.032Z,4.45
2022-08-20T06:19:33.167Z,4.85
2022-08-20T06:22:01.149Z,4.85
2022-08-20T06:24:29.127Z,4.40
2022-08-20T06:26:58.002Z,4.35
2022-08-20T06:29:26.012Z,6.03
2022-08-20T06:31:53.804Z,5.18
2022-08-20T06:34:28.159Z,6.85
2022-08-20T06:36:57.072Z,9.90
2022-08-20T06:39:25.453Z,5.70
2022-08-20T06:41:53.233Z,4.95
2022-08-20T06:44:24.224Z,4.60
2022-08-20T06:46:52.001Z,4.47
2022-08-20T06:49:19.888Z,4.82
2022-08-20T06:51:51.865Z,3.75
2022-08-20T06:54:20.080Z,5.22
2022-08-20T06:56:48.230Z,5.57
2022-08-20T06:59:16.113Z,5.68
2022-08-20T07:01:43.900Z,5.82
2022-08-20T07:04:11.842Z,5.57
2022-08-20T07:06:40.022Z,4.50
2022-08-20T07:09:09.207Z,10.40
2022-08-20T07:11:37.080Z,4.07
2022-08-20T07:14:05.400Z,6.43
2022-08-20T07:17:15.433Z,4.85
2022-08-20T07:19:43.296Z,5.30
2022-08-20T07:22:12.669Z,5.68
2022-08-20T07:24:41.576Z,7.05
2022-08-20T07:27:10.641Z,6.72
2022-08-20T07:29:56.095Z,4.85
2022-08-20T07:32:39.635Z,5.55
2022-08-20T07:35:16.171Z,3.95
2022-08-20T07:37:47.182Z,5.82
2022-08-20T07:40:21.376Z,4.88
2022-08-20T07:42:53.402Z,5.00
2022-08-20T07:45:21.844Z,4.32
2022-08-20T07:47:53.602Z,3.78
2022-08-20T07:50:24.467Z,4.30
2022-08-20T07:52:53.131Z,4.00
2022-08-20T07:55:22.475Z,5.25
2022-08-20T07:57:51.784Z,7.65
2022-08-20T08:00:22.821Z,4.45
2022-08-20T08:02:52.265Z,5.03
2022-08-20T08:05:20.257Z,5.22
2022-08-20T08:07:48.676Z,3.88
2022-08-20T08:10:19.613Z,5.50
2022-08-20T08:12:50.848Z,3.67
2022-08-20T08:15:24.474Z,5.25
2022-08-20T08:17:55.695Z,4.95
2022-08-20T08:20:23.983Z,5.35
2022-08-20T08:22:52.480Z,5.80
2022-08-20T08:25:20.738Z,4.25
2022-08-20T08:27:48.959Z,4.10
2022-08-20T08:30:17.658Z,7.75
2022-08-20T08:33:03.936Z,6.30
2022-08-20T08:35:34.057Z,7.60
2022-08-20T08:38:02.430Z,10.13
2022-08-20T08:40:31.898Z,16.00
2022-08-20T08:43:04.393Z,12.57
2022-08-20T08:45:43.771Z,14.52
2022-08-20T08:48:18.313Z,11.80
2022-08-20T08:50:54.519Z,10.65
2022-08-20T08:53:27.138Z,8.60
2022-08-20T08:55:55.004Z,4.75
2022-08-20T08:58:23.449Z,4.68
2022-08-20T09:00:56.229Z,9.90
2022-08-20T09:03:29.474Z,6.47
2022-08-20T09:06:01.417Z,4.60
2022-08-20T09:08:37.249Z,5.43
2022-08-20T09:11:06.553Z,4.68
2022-08-20T09:13:35.048Z,5.50
2022-08-20T09:16:03.229Z,6.05
2022-08-20T09:18:31.212Z,5.47
2022-08-20T09:21:00.841Z,6.10
2022-08-20T09:23:28.678Z,6.40
2022-08-20T09:25:56.543Z,6.43
2022-08-20T09:28:24.582Z,4.88
2022-08-20T09:31:00.425Z,5.68
2022-08-20T09:33:28.464Z,5.90
2022-08-20T09:35:56.389Z,7.32
2022-08-20T09:38:25.574Z,4.75
2022-08-20T09:40:53.385Z,3.63
2022-08-20T09:43:21.255Z,4.70
2022-08-20T09:45:48.993Z,4.60
2022-08-20T09:48:16.885Z,5.50
2022-08-20T09:50:49.837Z,5.72
2022-08-20T09:53:19.391Z,5.38
2022-08-20T09:55:52.335Z,5.22
2022-08-20T09:58:23.429Z,4.43
2022-08-20T10:00:51.637Z,3.67
2022-08-20T10:03:20.189Z,3.33
2022-08-20T10:05:48.101Z,3.00
2022-08-20T10:08:16.170Z,4.47
2022-08-20T10:10:43.939Z,5.13
2022-08-20T10:13:13.389Z,4.38
2022-08-20T10:15:43.339Z,5.50
2022-08-20T10:18:12.546Z,4.13
2022-08-20T10:20:41.218Z,3.85
2022-08-20T10:23:09.392Z,4.10
2022-08-20T10:25:37.230Z,3.42
2022-08-20T10:28:05.689Z,4.32
2022-08-20T10:30:35.012Z,4.97
2022-08-20T10:33:02.889Z,5.20
2022-08-20T10:35:31.093Z,6.68
2022-08-20T10:37:58.887Z,7.03
2022-08-20T10:40:26.966Z,4.15
2022-08-20T10:42:54.869Z,7.03
2022-08-20T10:45:23.001Z,4.78
2022-08-20T10:47:52.805Z,5.90
2022-08-20T10:50:20.775Z,4.57
2022-08-20T10:52:48.585Z,4.65
2022-08-20T10:55:16.705Z,4.78
2022-08-20T10:57:45.792Z,3.15
2022-08-20T11:00:15.324Z,4.72
2022-08-20T11:02:43.245Z,3.30
2022-08-20T11:05:12.402Z,4.90
2022-08-20T11:07:54.245Z,3.60
2022-08-20T11:10:25.238Z,5.75
2022-08-20T11:12:53.088Z,4.00
2022-08-20T11:15:20.944Z,3.42
2022-08-20T11:17:48.963Z,2.90
2022-08-20T11:20:20.884Z,3.25
2022-08-20T11:22:48.778Z,4.38
2022-08-20T11:25:16.868Z,4.38
2022-08-20T11:27:48.841Z,3.47
2022-08-20T11:30:23.893Z,3.22
2022-08-20T11:32:51.730Z,3.60
2022-08-20T11:38:09.799Z,4.43
2022-08-20T11:40:37.877Z,2.97
2022-08-20T11:43:21.057Z,5.03
2022-08-20T11:45:51.699Z,3.03
2022-08-20T11:48:19.569Z,2.72
2022-08-20T11:50:49.878Z,2.20
2022-08-20T11:53:17.716Z,2.22
2022-08-20T11:55:46.029Z,1.63
2022-08-20T11:58:13.927Z,3.53
2022-08-20T12:00:41.828Z,1.88
2022-08-20T12:03:11.837Z,2.20
2022-08-20T12:05:41.305Z,2.30
2022-08-20T12:08:27.239Z,2.58
2022-08-20T12:10:56.985Z,1.85
2022-08-20T12:13:30.678Z,1.90
2022-08-20T12:16:13.169Z,2.08
2022-08-20T12:18:41.068Z,2.42
2022-08-20T12:21:08.883Z,1.58
2022-08-20T12:23:38.147Z,2.55
2022-08-20T12:26:06.371Z,2.28
2022-08-20T12:28:34.290Z,3.00
2022-08-20T12:31:02.204Z,3.58
2022-08-20T12:33:30.028Z,1.90
2022-08-20T12:35:58.179Z,2.13
2022-08-20T12:38:26.073Z,2.60
2022-08-20T12:40:55.283Z,1.92
2022-08-20T12:43:25.137Z,1.95
2022-08-20T12:45:53.347Z,2.10
2022-08-20T12:48:21.906Z,1.83
2022-08-20T12:50:52.615Z,3.03
2022-08-20T12:53:20.468Z,2.40
2022-08-20T12:55:48.285Z,3.83
2022-08-20T12:58:17.413Z,3.20
2022-08-20T13:00:50.684Z,2.10
2022-08-20T13:03:20.051Z,1.73
2022-08-20T13:05:48.002Z,2.97
2022-08-20T13:08:17.596Z,1.27
2022-08-20T13:10:46.284Z,3.40
2022-08-20T13:13:15.060Z,5.22
2022-08-20T13:15:47.053Z,3.17
2022-08-20T13:18:15.041Z,2.33
2022-08-20T13:20:43.106Z,1.98
2022-08-20T13:23:10.947Z,2.33
2022-08-20T13:25:38.786Z,2.92
2022-08-20T13:28:07.355Z,3.28
2022-08-20T13:30:38.388Z,2.65
2022-08-20T13:33:07.578Z,2.33
2022-08-20T13:35:35.498Z,1.38
2022-08-20T13:38:03.286Z,1.65
2022-08-20T13:40:31.105Z,1.77
2022-08-20T13:43:04.573Z,1.45
2022-08-20T13:45:34.625Z,1.20
2022-08-20T13:48:02.420Z,1.85
2022-08-20T13:50:31.780Z,1.80
2022-08-20T13:52:59.669Z,1.92
2022-08-20T13:55:28.720Z,2.05
2022-08-20T13:57:58.680Z,1.38
2022-08-20T14:00:31.398Z,1.63
2022-08-20T14:03:00.237Z,1.10
2022-08-20T14:05:28.500Z,1.23
2022-08-20T14:08:06.360Z,1.20
2022-08-20T14:10:34.456Z,1.45
2022-08-20T14:13:06.633Z,1.77
2022-08-20T14:15:34.996Z,0.60
2022-08-20T14:18:03.268Z,1.63
2022-08-20T14:20:33.155Z,1.23
2022-08-20T14:23:03.148Z,0.60
2022-08-20T14:25:32.421Z,0.52
2022-08-20T14:28:09.433Z,1.92
2022-08-20T14:30:37.272Z,0.70
2022-08-20T14:33:05.154Z,0.47
2022-08-20T14:35:32.976Z,0.45
2022-08-20T14:38:05.253Z,1.77
2022-08-20T14:40:34.500Z,0.93
2022-08-20T14:43:03.250Z,3.17
2022-08-20T14:45:31.020Z,1.05
2022-08-20T14:47:59.790Z,0.60
2022-08-20T14:50:30.040Z,1.88
2022-08-20T14:52:58.784Z,0.50
2022-08-20T14:55:30.956Z,0.73
2022-08-20T14:57:58.950Z,0.57
2022-08-20T15:00:29.341Z,0.60
2022-08-20T15:02:58.269Z,0.75
2022-08-20T15:05:26.486Z,1.17
2022-08-20T15:07:54.843Z,2.35
2022-08-20T15:10:25.556Z,0.93
2022-08-20T15:12:54.980Z,1.05
2022-08-20T15:15:23.888Z,1.23
2022-08-20T15:17:54.841Z,1.70
2022-08-20T15:20:26.583Z,3.42
2022-08-20T15:22:54.985Z,2.38
2022-08-20T15:25:25.331Z,1.42
2022-08-20T15:27:58.378Z,3.17
2022-08-20T15:30:30.860Z,0.90
2022-08-20T15:32:58.933Z,1.13
2022-08-20T15:35:29.011Z,1.45
2022-08-20T15:37:59.083Z,1.10
2022-08-20T15:40:29.343Z,1.55
2022-08-20T15:42:58.976Z,1.92
2022-08-20T15:45:27.045Z,2.50
2022-08-20T15:47:56.692Z,1.88
2022-08-20T15:50:39.396Z,1.10
2022-08-20T15:53:12.437Z,2.67
2022-08-20T15:55:45.038Z,1.25
2022-08-20T15:58:23.022Z,0.63
2022-08-20T16:00:57.095Z,1.48
2022-08-20T16:04:07.008Z,0.63
2022-08-20T16:06:36.603Z,1.83
2022-08-20T16:09:20.529Z,1.10
2022-08-20T16:11:53.399Z,2.45
2022-08-20T16:14:25.833Z,5.03
2022-08-20T16:17:01.369Z,1.98
2022-08-20T16:19:36.952Z,0.77
2022-08-20T16:22:07.825Z,1.45
2022-08-20T16:24:35.757Z,1.65
2022-08-20T16:27:15.083Z,1.77
2022-08-20T16:29:57.331Z,2.28
2022-08-20T16:32:34.608Z,3.30
2022-08-20T16:35:14.719Z,2.33
2022-08-20T16:37:48.082Z,0.80
2022-08-20T16:40:23.685Z,2.17
2022-08-20T16:42:53.738Z,1.40
2022-08-20T16:45:26.770Z,3.05
2022-08-20T16:47:57.951Z,2.08
2022-08-20T16:50:30.045Z,3.38
2022-08-20T16:52:57.976Z,2.65
2022-08-20T16:55:26.822Z,1.33
2022-08-20T16:57:54.940Z,1.55
2022-08-20T17:00:29.397Z,1.83
2022-08-20T17:02:59.459Z,2.05
2022-08-20T17:05:29.731Z,3.10
2022-08-20T17:08:03.499Z,2.10
2022-08-20T17:10:34.720Z,1.50
2022-08-20T17:13:06.885Z,2.92
2022-08-20T17:15:36.496Z,2.67
2022-08-20T17:18:20.940Z,1.85
2022-08-20T17:20:49.402Z,1.55
2022-08-20T17:23:18.924Z,1.08
2022-08-20T17:25:55.927Z,2.90
2022-08-20T17:28:24.227Z,1.40
2022-08-20T17:30:53.956Z,1.52
2022-08-20T17:33:29.874Z,2.20
2022-08-20T17:35:59.784Z,3.22
2022-08-20T17:38:32.522Z,1.25
2022-08-20T17:41:01.539Z,2.40
2022-08-20T17:43:32.370Z,3.05
2022-08-20T17:46:04.953Z,6.20
2022-08-20T17:48:36.289Z,1.75
2022-08-20T17:51:17.082Z,3.20
2022-08-20T17:53:50.853Z,5.15
2022-08-20T17:56:22.576Z,1.33
2022-08-20T17:58:57.300Z,1.55
2022-08-20T18:01:32.659Z,2.65
2022-08-20T18:04:00.489Z,2.63
2022-08-20T18:06:35.706Z,2.70
2022-08-20T18:09:08.255Z,2.72
2022-08-20T18:11:44.851Z,1.13
2022-08-20T18:14:34.938Z,1.85
2022-08-20T18:17:18.032Z,3.03
2022-08-20T18:20:35.539Z,1.35
2022-08-20T18:23:11.582Z,2.22
2022-08-20T18:25:43.459Z,5.32
2022-08-20T18:28:17.441Z,3.47
2022-08-20T18:33:27.387Z,2.97
2022-08-20T18:36:06.509Z,1.02
2022-08-20T18:38:37.137Z,7.05
2022-08-20T18:41:13.401Z,2.28
2022-08-20T18:43:42.749Z,2.72
2022-08-20T18:46:20.720Z,1.65
2022-08-20T18:48:55.895Z,2.28
2022-08-20T18:51:30.921Z,1.70
2022-08-20T18:53:58.825Z,1.75
2022-08-20T18:56:39.678Z,1.48
2022-08-20T18:59:14.372Z,2.50
2022-08-20T19:01:43.627Z,1.52
2022-08-20T19:04:27.112Z,2.85
2022-08-20T19:06:58.169Z,2.35
2022-08-20T19:09:45.206Z,2.55
2022-08-20T19:12:36.054Z,2.03
2022-08-20T19:15:07.439Z,2.03
2022-08-20T19:17:56.451Z,1.40
2022-08-20T19:20:28.214Z,2.38
2022-08-20T19:23:01.576Z,3.35
2022-08-20T19:25:33.166Z,3.42
2022-08-20T19:28:03.879Z,1.90
2022-08-20T19:30:35.314Z,1.13
2022-08-20T19:33:03.695Z,2.30
2022-08-20T19:35:33.137Z,2.25
2022-08-20T19:38:02.237Z,4.10
2022-08-20T19:40:33.037Z,2.70
2022-08-20T19:43:12.323Z,2.13
2022-08-20T19:45:42.618Z,2.60
2022-08-20T19:48:44.786Z,3.45
2022-08-20T19:51:21.427Z,4.45
2022-08-20T19:53:50.343Z,3.15
2022-08-20T19:56:20.550Z,2.30
2022-08-20T19:59:00.556Z,4.03
2022-08-20T20:01:29.257Z,2.63
2022-08-20T20:04:00.339Z,2.90
2022-08-20T20:06:36.166Z,2.90
2022-08-20T20:09:07.978Z,3.28
2022-08-20T20:11:38.203Z,2.50
2022-08-20T20:14:08.782Z,3.53
2022-08-20T20:16:38.297Z,3.75
2022-08-20T20:19:25.873Z,3.58
2022-08-20T20:22:08.547Z,2.75
2022-08-20T20:24:50.727Z,4.78
2022-08-20T20:27:23.153Z,4.05
2022-08-20T20:29:51.799Z,3.85
2022-08-20T20:32:24.198Z,2.15
2022-08-20T20:34:56.078Z,2.65
2022-08-20T20:37:48.781Z,4.13
2022-08-20T20:40:25.469Z,4.40
2022-08-20T20:43:03.263Z,3.65
2022-08-20T20:45:35.128Z,5.75
2022-08-20T20:48:12.841Z,3.55
2022-08-20T20:50:40.950Z,6.45
2022-08-20T20:53:10.192Z,5.47
2022-08-20T20:55:39.898Z,2.45
2022-08-20T20:58:07.925Z,4.10
2022-08-20T21:00:36.015Z,4.07
2022-08-20T21:03:04.129Z,2.47
2022-08-20T21:05:33.642Z,4.10
2022-08-20T21:08:03.358Z,5.93
2022-08-20T21:10:36.410Z,4.72
2022-08-20T21:13:04.759Z,4.03
2022-08-20T21:15:33.977Z,5.25
2022-08-20T21:18:03.843Z,7.78
2022-08-20T21:20:32.023Z,3.72
2022-08-20T21:22:59.972Z,4.68
2022-08-20T21:25:29.794Z,5.15
2022-08-20T21:27:59.234Z,5.28
2022-08-20T21:30:27.476Z,3.40
2022-08-20T21:32:55.353Z,5.75
2022-08-20T21:35:23.754Z,4.55
2022-08-20T21:37:51.908Z,1.48
2022-08-20T21:40:21.827Z,4.68
2022-08-20T21:42:50.255Z,4.72
2022-08-20T21:45:20.795Z,3.42
2022-08-20T21:47:49.237Z,2.53
2022-08-20T21:50:19.387Z,4.15
2022-08-20T21:52:55.355Z,4.00
2022-08-20T21:55:27.971Z,4.38
2022-08-20T21:57:55.835Z,4.07
2022-08-20T22:00:54.438Z,5.15
2022-08-20T22:03:24.008Z,4.40
2022-08-20T22:05:52.855Z,4.78
2022-08-20T22:08:24.184Z,3.50
2022-08-20T22:10:56.982Z,3.72
2022-08-20T22:13:26.025Z,3.65
2022-08-20T22:15:55.158Z,3.28
2022-08-20T22:18:23.005Z,4.05
2022-08-20T22:20:50.837Z,2.90
2022-08-20T22:23:18.673Z,4.53
2022-08-20T22:25:46.601Z,5.07
2022-08-20T22:28:14.406Z,3.72
2022-08-20T22:30:42.993Z,4.15
2022-08-20T22:33:17.833Z,2.35
2022-08-20T22:35:48.546Z,3.45
2022-08-20T22:38:16.486Z,2.85
2022-08-20T22:40:45.382Z,2.30
2022-08-20T22:43:14.195Z,4.88
2022-08-20T22:45:44.368Z,2.90
2022-08-20T22:48:17.096Z,5.90
2022-08-20T22:50:45.968Z,3.47
2022-08-20T22:53:15.690Z,4.18
2022-08-20T22:55:43.892Z,2.50
2022-08-20T22:58:13.840Z,2.55
2022-08-20T23:00:42.005Z,4.40
2022-08-20T23:03:11.371Z,5.07
2022-08-20T23:05:40.739Z,8.50
2022-08-20T23:08:08.958Z,2.15
2022-08-20T23:10:39.050Z,3.50
2022-08-20T23:13:07.588Z,4.65
2022-08-20T23:15:41.391Z,4.05
2022-08-20T23:18:15.781Z,5.70
2022-08-20T23:20:49.199Z,5.60
2022-08-20T23:23:17.041Z,3.95
2022-08-20T23:25:44.805Z,4.82
2022-08-20T23:28:12.787Z,6.15
2022-08-20T23:30:40.646Z,6.00
2022-08-20T23:33:08.397Z,2.42
2022-08-20T23:35:39.605Z,3.63
2022-08-20T23:38:09.354Z,3.33
2022-08-20T23:40:38.140Z,4.07
2022-08-20T23:43:06.459Z,4.10
2022-08-20T23:45:35.043Z,5.07
2022-08-20T23:48:07.793Z,3.72
2022-08-20T23:50:35.609Z,5.78
2022-08-20T23:53:03.565Z,3.47
2022-08-20T23:55:33.429Z,3.10
2022-08-20T23:58:01.460Z,4.90
